sensor_id;sensor_type;location;lat;lon;timestamp;P1;durP1;ratioP1;P2;durP2;ratioP2
39600;SDS011;25297;44.758;11.310;2023-12-04T00:00:10;31.63;;;21.63;;
39600;SDS011;25297;44.758;11.310;2023-12-04T00:02:36;35.42;;;22.75;;
39600;SDS011;25297;44.758;11.310;2023-12-04T00:05:03;34.05;;;20.95;;
39600;SDS011;25297;44.758;11.310;2023-12-04T00:07:29;35.22;;;22.75;;
39600;SDS011;25297;44.758;11.310;2023-12-04T00:09:55;30.50;;;20.10;;
39600;SDS011;25297;44.758;11.310;2023-12-04T00:12:21;37.95;;;20.92;;
39600;SDS011;25297;44.758;11.310;2023-12-04T00:14:46;32.03;;;20.92;;
39600;SDS011;25297;44.758;11.310;2023-12-04T00:17:12;31.63;;;22.63;;
39600;SDS011;25297;44.758;11.310;2023-12-04T00:19:37;25.10;;;18.25;;
39600;SDS011;25297;44.758;11.310;2023-12-04T00:22:03;28.70;;;20.75;;
39600;SDS011;25297;44.758;11.310;2023-12-04T00:24:29;31.38;;;22.05;;
39600;SDS011;25297;44.758;11.310;2023-12-04T00:26:54;31.45;;;21.08;;
39600;SDS011;25297;44.758;11.310;2023-12-04T00:29:20;29.08;;;19.45;;
39600;SDS011;25297;44.758;11.310;2023-12-04T00:31:45;34.80;;;20.00;;
39600;SDS011;25297;44.758;11.310;2023-12-04T00:34:11;25.55;;;18.70;;
39600;SDS011;25297;44.758;11.310;2023-12-04T00:36:37;31.45;;;19.38;;
39600;SDS011;25297;44.758;11.310;2023-12-04T00:39:03;32.38;;;20.52;;
39600;SDS011;25297;44.758;11.310;2023-12-04T00:41:29;29.27;;;20.20;;
39600;SDS011;25297;44.758;11.310;2023-12-04T00:43:54;29.90;;;19.92;;
39600;SDS011;25297;44.758;11.310;2023-12-04T00:46:20;29.13;;;19.35;;
39600;SDS011;25297;44.758;11.310;2023-12-04T00:48:46;30.42;;;20.27;;
39600;SDS011;25297;44.758;11.310;2023-12-04T00:51:12;25.52;;;17.33;;
39600;SDS011;25297;44.758;11.310;2023-12-04T00:53:37;29.92;;;19.25;;
39600;SDS011;25297;44.758;11.310;2023-12-04T00:56:04;29.27;;;20.55;;
39600;SDS011;25297;44.758;11.310;2023-12-04T00:58:30;26.08;;;18.48;;
39600;SDS011;25297;44.758;11.310;2023-12-04T01:00:55;28.08;;;19.45;;
39600;SDS011;25297;44.758;11.310;2023-12-04T01:03:22;28.80;;;20.48;;
39600;SDS011;25297;44.758;11.310;2023-12-04T01:05:47;25.02;;;17.38;;
39600;SDS011;25297;44.758;11.310;2023-12-04T01:08:13;28.02;;;17.88;;
39600;SDS011;25297;44.758;11.310;2023-12-04T01:10:39;24.73;;;18.20;;
39600;SDS011;25297;44.758;11.310;2023-12-04T01:13:05;25.38;;;18.20;;
39600;SDS011;25297;44.758;11.310;2023-12-04T01:15:31;28.25;;;19.73;;
39600;SDS011;25297;44.758;11.310;2023-12-04T01:17:56;26.92;;;18.75;;
39600;SDS011;25297;44.758;11.310;2023-12-04T01:20:22;28.48;;;19.60;;
39600;SDS011;25297;44.758;11.310;2023-12-04T01:22:48;26.17;;;19.00;;
39600;SDS011;25297;44.758;11.310;2023-12-04T01:25:13;25.63;;;18.48;;
39600;SDS011;25297;44.758;11.310;2023-12-04T01:27:39;29.30;;;18.55;;
39600;SDS011;25297;44.758;11.310;2023-12-04T01:30:05;26.10;;;18.05;;
39600;SDS011;25297;44.758;11.310;2023-12-04T01:32:33;25.30;;;18.45;;
39600;SDS011;25297;44.758;11.310;2023-12-04T01:34:59;27.52;;;17.98;;
39600;SDS011;25297;44.758;11.310;2023-12-04T01:37:26;26.10;;;17.35;;
39600;SDS011;25297;44.758;11.310;2023-12-04T01:39:51;26.58;;;17.70;;
39600;SDS011;25297;44.758;11.310;2023-12-04T01:42:17;26.92;;;18.80;;
39600;SDS011;25297;44.758;11.310;2023-12-04T01:44:42;23.73;;;16.63;;
39600;SDS011;25297;44.758;11.310;2023-12-04T01:47:08;20.40;;;15.07;;
39600;SDS011;25297;44.758;11.310;2023-12-04T01:49:35;21.40;;;15.90;;
39600;SDS011;25297;44.758;11.310;2023-12-04T01:52:01;26.23;;;17.25;;
39600;SDS011;25297;44.758;11.310;2023-12-04T01:54:27;23.58;;;15.85;;
39600;SDS011;25297;44.758;11.310;2023-12-04T01:56:54;21.90;;;15.73;;
39600;SDS011;25297;44.758;11.310;2023-12-04T01:59:20;22.58;;;16.50;;
39600;SDS011;25297;44.758;11.310;2023-12-04T02:01:46;27.48;;;17.17;;
39600;SDS011;25297;44.758;11.310;2023-12-04T02:04:12;22.67;;;16.20;;
39600;SDS011;25297;44.758;11.310;2023-12-04T02:06:40;21.83;;;16.25;;
39600;SDS011;25297;44.758;11.310;2023-12-04T02:09:05;23.55;;;17.05;;
39600;SDS011;25297;44.758;11.310;2023-12-04T02:11:32;23.20;;;17.05;;
39600;SDS011;25297;44.758;11.310;2023-12-04T02:13:57;25.90;;;17.13;;
39600;SDS011;25297;44.758;11.310;2023-12-04T02:16:23;22.85;;;16.38;;
39600;SDS011;25297;44.758;11.310;2023-12-04T02:18:52;23.85;;;16.48;;
39600;SDS011;25297;44.758;11.310;2023-12-04T02:21:17;21.83;;;16.20;;
39600;SDS011;25297;44.758;11.310;2023-12-04T02:23:47;25.25;;;17.42;;
39600;SDS011;25297;44.758;11.310;2023-12-04T02:26:17;24.35;;;18.00;;
39600;SDS011;25297;44.758;11.310;2023-12-04T02:28:55;23.60;;;16.95;;
39600;SDS011;25297;44.758;11.310;2023-12-04T02:31:24;23.83;;;16.38;;
39600;SDS011;25297;44.758;11.310;2023-12-04T02:33:52;25.40;;;17.05;;
39600;SDS011;25297;44.758;11.310;2023-12-04T02:36:20;20.73;;;16.52;;
39600;SDS011;25297;44.758;11.310;2023-12-04T02:38:49;22.92;;;17.00;;
39600;SDS011;25297;44.758;11.310;2023-12-04T02:41:16;26.42;;;16.38;;
39600;SDS011;25297;44.758;11.310;2023-12-04T02:43:42;20.45;;;15.85;;
39600;SDS011;25297;44.758;11.310;2023-12-04T02:46:08;20.95;;;15.38;;
39600;SDS011;25297;44.758;11.310;2023-12-04T02:48:34;24.58;;;17.35;;
39600;SDS011;25297;44.758;11.310;2023-12-04T02:51:00;22.27;;;16.73;;
39600;SDS011;25297;44.758;11.310;2023-12-04T02:53:26;24.42;;;16.92;;
39600;SDS011;25297;44.758;11.310;2023-12-04T02:55:52;24.88;;;17.58;;
39600;SDS011;25297;44.758;11.310;2023-12-04T02:58:17;24.00;;;16.45;;
39600;SDS011;25297;44.758;11.310;2023-12-04T03:00:43;23.45;;;15.70;;
39600;SDS011;25297;44.758;11.310;2023-12-04T03:03:09;22.35;;;17.38;;
39600;SDS011;25297;44.758;11.310;2023-12-04T03:05:35;23.85;;;16.63;;
39600;SDS011;25297;44.758;11.310;2023-12-04T03:08:01;23.92;;;16.73;;
39600;SDS011;25297;44.758;11.310;2023-12-04T03:10:26;24.05;;;16.77;;
39600;SDS011;25297;44.758;11.310;2023-12-04T03:12:52;21.63;;;15.35;;
39600;SDS011;25297;44.758;11.310;2023-12-04T03:15:17;24.63;;;16.90;;
39600;SDS011;25297;44.758;11.310;2023-12-04T03:17:43;19.77;;;15.52;;
39600;SDS011;25297;44.758;11.310;2023-12-04T03:20:09;28.20;;;17.00;;
39600;SDS011;25297;44.758;11.310;2023-12-04T03:22:38;23.63;;;15.95;;
39600;SDS011;25297;44.758;11.310;2023-12-04T03:25:04;22.25;;;15.93;;
39600;SDS011;25297;44.758;11.310;2023-12-04T03:27:30;20.25;;;15.25;;
39600;SDS011;25297;44.758;11.310;2023-12-04T03:29:56;24.27;;;15.65;;
39600;SDS011;25297;44.758;11.310;2023-12-04T03:32:21;23.52;;;16.17;;
39600;SDS011;25297;44.758;11.310;2023-12-04T03:34:47;21.73;;;14.95;;
39600;SDS011;25297;44.758;11.310;2023-12-04T03:37:13;23.58;;;17.08;;
39600;SDS011;25297;44.758;11.310;2023-12-04T03:39:38;28.67;;;17.83;;
39600;SDS011;25297;44.758;11.310;2023-12-04T03:42:04;29.95;;;17.92;;
39600;SDS011;25297;44.758;11.310;2023-12-04T03:44:30;24.63;;;16.88;;
39600;SDS011;25297;44.758;11.310;2023-12-04T03:46:55;26.85;;;18.00;;
39600;SDS011;25297;44.758;11.310;2023-12-04T03:49:21;22.95;;;18.08;;
39600;SDS011;25297;44.758;11.310;2023-12-04T03:51:46;23.73;;;17.63;;
39600;SDS011;25297;44.758;11.310;2023-12-04T03:54:12;20.20;;;14.75;;
39600;SDS011;25297;44.758;11.310;2023-12-04T03:56:38;22.48;;;16.52;;
39600;SDS011;25297;44.758;11.310;2023-12-04T03:59:04;21.13;;;14.57;;
39600;SDS011;25297;44.758;11.310;2023-12-04T04:01:30;22.33;;;15.50;;
39600;SDS011;25297;44.758;11.310;2023-12-04T04:03:56;21.92;;;16.52;;
39600;SDS011;25297;44.758;11.310;2023-12-04T04:06:21;24.10;;;16.08;;
39600;SDS011;25297;44.758;11.310;2023-12-04T04:08:47;23.40;;;16.98;;
39600;SDS011;25297;44.758;11.310;2023-12-04T04:11:13;23.75;;;17.10;;
39600;SDS011;25297;44.758;11.310;2023-12-04T04:13:38;22.35;;;15.15;;
39600;SDS011;25297;44.758;11.310;2023-12-04T04:16:04;20.40;;;14.65;;
39600;SDS011;25297;44.758;11.310;2023-12-04T04:18:30;25.60;;;16.70;;
39600;SDS011;25297;44.758;11.310;2023-12-04T04:20:56;26.65;;;17.65;;
39600;SDS011;25297;44.758;11.310;2023-12-04T04:23:22;23.58;;;17.17;;
39600;SDS011;25297;44.758;11.310;2023-12-04T04:25:47;28.90;;;17.02;;
39600;SDS011;25297;44.758;11.310;2023-12-04T04:28:13;24.02;;;16.90;;
39600;SDS011;25297;44.758;11.310;2023-12-04T04:30:38;23.90;;;17.02;;
39600;SDS011;25297;44.758;11.310;2023-12-04T04:33:05;23.13;;;16.23;;
39600;SDS011;25297;44.758;11.310;2023-12-04T04:35:30;26.20;;;17.00;;
39600;SDS011;25297;44.758;11.310;2023-12-04T04:37:57;23.15;;;15.63;;
39600;SDS011;25297;44.758;11.310;2023-12-04T04:40:22;26.10;;;16.30;;
39600;SDS011;25297;44.758;11.310;2023-12-04T04:42:48;28.13;;;16.20;;
39600;SDS011;25297;44.758;11.310;2023-12-04T04:45:13;22.15;;;16.20;;
39600;SDS011;25297;44.758;11.310;2023-12-04T04:47:39;22.98;;;16.60;;
39600;SDS011;25297;44.758;11.310;2023-12-04T04:50:05;21.95;;;16.83;;
39600;SDS011;25297;44.758;11.310;2023-12-04T04:52:31;21.17;;;16.15;;
39600;SDS011;25297;44.758;11.310;2023-12-04T04:54:57;23.58;;;16.88;;
39600;SDS011;25297;44.758;11.310;2023-12-04T04:57:22;23.13;;;16.02;;
39600;SDS011;25297;44.758;11.310;2023-12-04T04:59:48;23.13;;;16.58;;
39600;SDS011;25297;44.758;11.310;2023-12-04T05:02:13;22.45;;;15.77;;
39600;SDS011;25297;44.758;11.310;2023-12-04T05:04:39;26.88;;;15.52;;
39600;SDS011;25297;44.758;11.310;2023-12-04T05:07:05;23.00;;;17.08;;
39600;SDS011;25297;44.758;11.310;2023-12-04T05:09:30;26.15;;;16.77;;
39600;SDS011;25297;44.758;11.310;2023-12-04T05:11:56;21.17;;;14.80;;
39600;SDS011;25297;44.758;11.310;2023-12-04T05:14:22;24.60;;;16.55;;
39600;SDS011;25297;44.758;11.310;2023-12-04T05:16:47;22.02;;;14.55;;
39600;SDS011;25297;44.758;11.310;2023-12-04T05:19:13;20.20;;;14.95;;
39600;SDS011;25297;44.758;11.310;2023-12-04T05:21:38;19.23;;;14.35;;
39600;SDS011;25297;44.758;11.310;2023-12-04T05:24:04;20.88;;;15.32;;
39600;SDS011;25297;44.758;11.310;2023-12-04T05:26:30;24.58;;;16.58;;
39600;SDS011;25297;44.758;11.310;2023-12-04T05:28:56;19.90;;;14.18;;
39600;SDS011;25297;44.758;11.310;2023-12-04T05:31:22;19.02;;;14.15;;
39600;SDS011;25297;44.758;11.310;2023-12-04T05:33:47;21.08;;;15.68;;
39600;SDS011;25297;44.758;11.310;2023-12-04T05:36:13;20.27;;;14.85;;
39600;SDS011;25297;44.758;11.310;2023-12-04T05:38:38;24.42;;;16.00;;
39600;SDS011;25297;44.758;11.310;2023-12-04T05:41:04;25.33;;;15.55;;
39600;SDS011;25297;44.758;11.310;2023-12-04T05:43:30;20.40;;;14.73;;
39600;SDS011;25297;44.758;11.310;2023-12-04T05:45:55;19.33;;;13.65;;
39600;SDS011;25297;44.758;11.310;2023-12-04T05:48:21;21.08;;;14.25;;
39600;SDS011;25297;44.758;11.310;2023-12-04T05:50:46;28.10;;;15.40;;
39600;SDS011;25297;44.758;11.310;2023-12-04T05:53:12;26.75;;;15.23;;
39600;SDS011;25297;44.758;11.310;2023-12-04T05:55:37;30.42;;;15.93;;
39600;SDS011;25297;44.758;11.310;2023-12-04T05:58:03;29.33;;;16.27;;
39600;SDS011;25297;44.758;11.310;2023-12-04T06:00:29;27.58;;;15.38;;
39600;SDS011;25297;44.758;11.310;2023-12-04T06:02:54;33.38;;;16.15;;
39600;SDS011;25297;44.758;11.310;2023-12-04T06:05:20;23.17;;;15.95;;
39600;SDS011;25297;44.758;11.310;2023-12-04T06:07:46;25.08;;;16.17;;
39600;SDS011;25297;44.758;11.310;2023-12-04T06:10:11;25.17;;;16.17;;
39600;SDS011;25297;44.758;11.310;2023-12-04T06:12:37;27.02;;;15.80;;
39600;SDS011;25297;44.758;11.310;2023-12-04T06:15:03;24.95;;;15.90;;
39600;SDS011;25297;44.758;11.310;2023-12-04T06:17:29;26.75;;;16.50;;
39600;SDS011;25297;44.758;11.310;2023-12-04T06:19:55;20.45;;;14.77;;
39600;SDS011;25297;44.758;11.310;2023-12-04T06:22:21;24.20;;;16.98;;
39600;SDS011;25297;44.758;11.310;2023-12-04T06:24:47;25.33;;;16.55;;
39600;SDS011;25297;44.758;11.310;2023-12-04T06:27:14;25.98;;;16.50;;
39600;SDS011;25297;44.758;11.310;2023-12-04T06:29:43;22.63;;;15.02;;
39600;SDS011;25297;44.758;11.310;2023-12-04T06:32:09;21.95;;;15.45;;
39600;SDS011;25297;44.758;11.310;2023-12-04T06:34:36;20.42;;;15.00;;
39600;SDS011;25297;44.758;11.310;2023-12-04T06:37:02;22.92;;;14.95;;
39600;SDS011;25297;44.758;11.310;2023-12-04T06:39:29;21.65;;;15.48;;
39600;SDS011;25297;44.758;11.310;2023-12-04T06:41:58;22.15;;;16.05;;
39600;SDS011;25297;44.758;11.310;2023-12-04T06:44:24;20.58;;;13.95;;
39600;SDS011;25297;44.758;11.310;2023-12-04T06:46:50;21.27;;;12.90;;
39600;SDS011;25297;44.758;11.310;2023-12-04T06:49:17;24.02;;;15.50;;
39600;SDS011;25297;44.758;11.310;2023-12-04T06:51:43;20.33;;;13.93;;
39600;SDS011;25297;44.758;11.310;2023-12-04T06:54:09;22.33;;;15.60;;
39600;SDS011;25297;44.758;11.310;2023-12-04T06:56:36;25.88;;;16.08;;
39600;SDS011;25297;44.758;11.310;2023-12-04T06:59:02;23.55;;;15.93;;
39600;SDS011;25297;44.758;11.310;2023-12-04T07:01:29;27.40;;;18.08;;
39600;SDS011;25297;44.758;11.310;2023-12-04T07:03:54;25.35;;;16.60;;
39600;SDS011;25297;44.758;11.310;2023-12-04T07:06:20;29.27;;;16.67;;
39600;SDS011;25297;44.758;11.310;2023-12-04T07:08:46;27.63;;;16.67;;
39600;SDS011;25297;44.758;11.310;2023-12-04T07:11:11;28.25;;;17.98;;
39600;SDS011;25297;44.758;11.310;2023-12-04T07:13:40;28.42;;;17.92;;
39600;SDS011;25297;44.758;11.310;2023-12-04T07:16:07;25.08;;;17.27;;
39600;SDS011;25297;44.758;11.310;2023-12-04T07:18:33;24.88;;;17.38;;
39600;SDS011;25297;44.758;11.310;2023-12-04T07:20:58;25.98;;;17.25;;
39600;SDS011;25297;44.758;11.310;2023-12-04T07:23:24;27.42;;;18.65;;
39600;SDS011;25297;44.758;11.310;2023-12-04T07:25:49;27.92;;;18.15;;
39600;SDS011;25297;44.758;11.310;2023-12-04T07:28:16;29.15;;;18.88;;
39600;SDS011;25297;44.758;11.310;2023-12-04T07:30:42;27.05;;;17.33;;
39600;SDS011;25297;44.758;11.310;2023-12-04T07:33:08;31.40;;;17.98;;
39600;SDS011;25297;44.758;11.310;2023-12-04T07:35:33;27.02;;;18.60;;
39600;SDS011;25297;44.758;11.310;2023-12-04T07:37:59;24.17;;;16.83;;
39600;SDS011;25297;44.758;11.310;2023-12-04T07:40:25;24.92;;;17.15;;
39600;SDS011;25297;44.758;11.310;2023-12-04T07:42:50;24.10;;;16.98;;
39600;SDS011;25297;44.758;11.310;2023-12-04T07:45:16;26.80;;;16.48;;
39600;SDS011;25297;44.758;11.310;2023-12-04T07:47:42;28.33;;;19.02;;
39600;SDS011;25297;44.758;11.310;2023-12-04T07:50:08;27.63;;;17.77;;
39600;SDS011;25297;44.758;11.310;2023-12-04T07:52:33;24.85;;;16.98;;
39600;SDS011;25297;44.758;11.310;2023-12-04T07:54:59;23.92;;;16.90;;
39600;SDS011;25297;44.758;11.310;2023-12-04T07:57:25;22.90;;;17.13;;
39600;SDS011;25297;44.758;11.310;2023-12-04T07:59:50;24.38;;;17.85;;
39600;SDS011;25297;44.758;11.310;2023-12-04T08:02:16;23.38;;;16.92;;
39600;SDS011;25297;44.758;11.310;2023-12-04T08:04:42;25.30;;;17.38;;
39600;SDS011;25297;44.758;11.310;2023-12-04T08:07:07;24.08;;;17.92;;
39600;SDS011;25297;44.758;11.310;2023-12-04T08:09:33;25.42;;;17.70;;
39600;SDS011;25297;44.758;11.310;2023-12-04T08:11:58;23.80;;;16.90;;
39600;SDS011;25297;44.758;11.310;2023-12-04T08:14:24;24.67;;;17.02;;
39600;SDS011;25297;44.758;11.310;2023-12-04T08:16:51;21.00;;;15.73;;
39600;SDS011;25297;44.758;11.310;2023-12-04T08:19:17;27.92;;;17.65;;
39600;SDS011;25297;44.758;11.310;2023-12-04T08:21:43;26.88;;;17.23;;
39600;SDS011;25297;44.758;11.310;2023-12-04T08:24:09;26.13;;;17.67;;
39600;SDS011;25297;44.758;11.310;2023-12-04T08:26:34;25.50;;;18.05;;
39600;SDS011;25297;44.758;11.310;2023-12-04T08:29:01;25.35;;;17.40;;
39600;SDS011;25297;44.758;11.310;2023-12-04T08:31:27;22.92;;;16.77;;
39600;SDS011;25297;44.758;11.310;2023-12-04T08:33:53;26.42;;;17.98;;
39600;SDS011;25297;44.758;11.310;2023-12-04T08:36:18;27.50;;;17.42;;
39600;SDS011;25297;44.758;11.310;2023-12-04T08:38:44;25.83;;;17.95;;
39600;SDS011;25297;44.758;11.310;2023-12-04T08:41:10;33.28;;;18.15;;
39600;SDS011;25297;44.758;11.310;2023-12-04T08:43:36;24.73;;;17.58;;
39600;SDS011;25297;44.758;11.310;2023-12-04T08:46:01;26.35;;;17.65;;
39600;SDS011;25297;44.758;11.310;2023-12-04T08:48:27;24.13;;;17.25;;
39600;SDS011;25297;44.758;11.310;2023-12-04T08:50:53;29.83;;;19.98;;
39600;SDS011;25297;44.758;11.310;2023-12-04T08:53:19;33.38;;;18.70;;
39600;SDS011;25297;44.758;11.310;2023-12-04T08:55:44;28.33;;;19.85;;
39600;SDS011;25297;44.758;11.310;2023-12-04T08:58:10;25.65;;;18.65;;
39600;SDS011;25297;44.758;11.310;2023-12-04T09:00:36;25.05;;;17.52;;
39600;SDS011;25297;44.758;11.310;2023-12-04T09:03:02;25.27;;;17.35;;
39600;SDS011;25297;44.758;11.310;2023-12-04T09:05:28;29.58;;;18.77;;
39600;SDS011;25297;44.758;11.310;2023-12-04T09:07:54;25.63;;;17.58;;
39600;SDS011;25297;44.758;11.310;2023-12-04T09:10:19;26.48;;;17.63;;
39600;SDS011;25297;44.758;11.310;2023-12-04T09:12:45;25.30;;;16.88;;
39600;SDS011;25297;44.758;11.310;2023-12-04T09:15:10;23.92;;;17.63;;
39600;SDS011;25297;44.758;11.310;2023-12-04T09:17:36;26.80;;;18.40;;
39600;SDS011;25297;44.758;11.310;2023-12-04T09:20:02;29.35;;;17.40;;
39600;SDS011;25297;44.758;11.310;2023-12-04T09:22:30;26.58;;;18.63;;
39600;SDS011;25297;44.758;11.310;2023-12-04T09:24:56;28.13;;;17.40;;
39600;SDS011;25297;44.758;11.310;2023-12-04T09:27:22;29.52;;;18.67;;
39600;SDS011;25297;44.758;11.310;2023-12-04T09:29:48;28.88;;;18.48;;
39600;SDS011;25297;44.758;11.310;2023-12-04T09:32:14;28.45;;;17.10;;
39600;SDS011;25297;44.758;11.310;2023-12-04T09:34:39;26.10;;;18.02;;
39600;SDS011;25297;44.758;11.310;2023-12-04T09:37:05;22.92;;;16.83;;
39600;SDS011;25297;44.758;11.310;2023-12-04T09:39:32;23.88;;;16.77;;
39600;SDS011;25297;44.758;11.310;2023-12-04T09:41:58;24.75;;;17.35;;
39600;SDS011;25297;44.758;11.310;2023-12-04T09:44:24;25.30;;;15.82;;
39600;SDS011;25297;44.758;11.310;2023-12-04T09:46:53;24.80;;;16.13;;
39600;SDS011;25297;44.758;11.310;2023-12-04T09:49:19;23.77;;;16.92;;
39600;SDS011;25297;44.758;11.310;2023-12-04T09:51:45;25.08;;;16.98;;
39600;SDS011;25297;44.758;11.310;2023-12-04T09:54:11;25.40;;;16.70;;
39600;SDS011;25297;44.758;11.310;2023-12-04T09:56:37;23.10;;;15.48;;
39600;SDS011;25297;44.758;11.310;2023-12-04T09:59:05;22.98;;;16.10;;
39600;SDS011;25297;44.758;11.310;2023-12-04T10:01:32;23.38;;;16.02;;
39600;SDS011;25297;44.758;11.310;2023-12-04T10:04:00;22.25;;;14.50;;
39600;SDS011;25297;44.758;11.310;2023-12-04T10:06:30;20.80;;;14.30;;
39600;SDS011;25297;44.758;11.310;2023-12-04T10:08:56;19.35;;;13.02;;
39600;SDS011;25297;44.758;11.310;2023-12-04T10:11:25;15.82;;;12.13;;
39600;SDS011;25297;44.758;11.310;2023-12-04T10:13:52;16.58;;;11.82;;
39600;SDS011;25297;44.758;11.310;2023-12-04T10:16:34;19.40;;;13.02;;
39600;SDS011;25297;44.758;11.310;2023-12-04T10:21:44;15.65;;;12.38;;
39600;SDS011;25297;44.758;11.310;2023-12-04T10:24:11;15.95;;;11.25;;
39600;SDS011;25297;44.758;11.310;2023-12-04T10:26:37;16.70;;;12.00;;
39600;SDS011;25297;44.758;11.310;2023-12-04T10:29:14;14.98;;;11.38;;
39600;SDS011;25297;44.758;11.310;2023-12-04T10:31:39;18.02;;;12.93;;
39600;SDS011;25297;44.758;11.310;2023-12-04T10:34:05;18.27;;;12.52;;
39600;SDS011;25297;44.758;11.310;2023-12-04T10:36:30;18.02;;;13.48;;
39600;SDS011;25297;44.758;11.310;2023-12-04T10:38:57;17.95;;;13.13;;
39600;SDS011;25297;44.758;11.310;2023-12-04T10:41:29;16.10;;;12.88;;
39600;SDS011;25297;44.758;11.310;2023-12-04T10:43:56;17.13;;;12.55;;
39600;SDS011;25297;44.758;11.310;2023-12-04T10:46:23;15.43;;;12.40;;
39600;SDS011;25297;44.758;11.310;2023-12-04T10:48:49;17.08;;;12.65;;
39600;SDS011;25297;44.758;11.310;2023-12-04T10:51:16;21.77;;;12.57;;
39600;SDS011;25297;44.758;11.310;2023-12-04T10:53:42;16.98;;;12.10;;
39600;SDS011;25297;44.758;11.310;2023-12-04T10:56:10;14.77;;;11.50;;
39600;SDS011;25297;44.758;11.310;2023-12-04T10:58:39;16.77;;;12.43;;
39600;SDS011;25297;44.758;11.310;2023-12-04T11:01:06;16.25;;;11.75;;
39600;SDS011;25297;44.758;11.310;2023-12-04T11:03:39;15.73;;;11.55;;
39600;SDS011;25297;44.758;11.310;2023-12-04T11:06:09;15.02;;;11.45;;
39600;SDS011;25297;44.758;11.310;2023-12-04T11:08:40;18.17;;;12.90;;
39600;SDS011;25297;44.758;11.310;2023-12-04T11:11:12;19.45;;;13.32;;
39600;SDS011;25297;44.758;11.310;2023-12-04T11:13:41;18.98;;;12.02;;
39600;SDS011;25297;44.758;11.310;2023-12-04T11:18:56;16.40;;;12.80;;
39600;SDS011;25297;44.758;11.310;2023-12-04T11:21:27;17.52;;;13.30;;
39600;SDS011;25297;44.758;11.310;2023-12-04T11:23:55;17.75;;;13.38;;
39600;SDS011;25297;44.758;11.310;2023-12-04T11:26:23;17.38;;;12.90;;
39600;SDS011;25297;44.758;11.310;2023-12-04T11:28:50;17.98;;;13.93;;
39600;SDS011;25297;44.758;11.310;2023-12-04T11:31:16;19.17;;;13.40;;
39600;SDS011;25297;44.758;11.310;2023-12-04T11:33:42;18.20;;;13.30;;
39600;SDS011;25297;44.758;11.310;2023-12-04T11:36:08;20.02;;;13.45;;
39600;SDS011;25297;44.758;11.310;2023-12-04T11:38:36;19.02;;;14.45;;
39600;SDS011;25297;44.758;11.310;2023-12-04T11:41:14;17.95;;;13.65;;
39600;SDS011;25297;44.758;11.310;2023-12-04T11:43:41;17.45;;;13.52;;
39600;SDS011;25297;44.758;11.310;2023-12-04T11:46:10;16.98;;;13.40;;
39600;SDS011;25297;44.758;11.310;2023-12-04T11:48:39;17.90;;;13.45;;
39600;SDS011;25297;44.758;11.310;2023-12-04T11:51:05;18.90;;;13.50;;
39600;SDS011;25297;44.758;11.310;2023-12-04T11:53:32;17.50;;;13.48;;
39600;SDS011;25297;44.758;11.310;2023-12-04T11:56:08;16.67;;;12.27;;
39600;SDS011;25297;44.758;11.310;2023-12-04T11:58:46;16.83;;;11.75;;
39600;SDS011;25297;44.758;11.310;2023-12-04T12:01:12;16.98;;;11.93;;
39600;SDS011;25297;44.758;11.310;2023-12-04T12:03:38;18.55;;;13.30;;
39600;SDS011;25297;44.758;11.310;2023-12-04T12:06:04;16.48;;;12.27;;
39600;SDS011;25297;44.758;11.310;2023-12-04T12:08:30;21.83;;;13.52;;
39600;SDS011;25297;44.758;11.310;2023-12-04T12:10:56;14.75;;;11.07;;
39600;SDS011;25297;44.758;11.310;2023-12-04T12:13:22;17.75;;;12.55;;
39600;SDS011;25297;44.758;11.310;2023-12-04T12:15:51;17.02;;;11.63;;
39600;SDS011;25297;44.758;11.310;2023-12-04T12:18:17;18.23;;;13.07;;
39600;SDS011;25297;44.758;11.310;2023-12-04T12:20:43;18.38;;;12.77;;
39600;SDS011;25297;44.758;11.310;2023-12-04T12:23:09;15.65;;;11.10;;
39600;SDS011;25297;44.758;11.310;2023-12-04T12:25:35;15.95;;;12.02;;
39600;SDS011;25297;44.758;11.310;2023-12-04T12:28:04;18.83;;;13.25;;
39600;SDS011;25297;44.758;11.310;2023-12-04T12:30:30;17.23;;;12.43;;
39600;SDS011;25297;44.758;11.310;2023-12-04T12:32:56;17.63;;;12.05;;
39600;SDS011;25297;44.758;11.310;2023-12-04T12:35:22;17.45;;;11.77;;
39600;SDS011;25297;44.758;11.310;2023-12-04T12:37:48;18.02;;;13.50;;
39600;SDS011;25297;44.758;11.310;2023-12-04T12:40:18;15.52;;;11.35;;
39600;SDS011;25297;44.758;11.310;2023-12-04T12:42:46;15.85;;;12.00;;
39600;SDS011;25297;44.758;11.310;2023-12-04T12:45:11;16.30;;;12.02;;
39600;SDS011;25297;44.758;11.310;2023-12-04T12:47:37;24.25;;;12.85;;
39600;SDS011;25297;44.758;11.310;2023-12-04T12:50:07;19.13;;;12.63;;
39600;SDS011;25297;44.758;11.310;2023-12-04T12:52:35;18.65;;;12.68;;
39600;SDS011;25297;44.758;11.310;2023-12-04T12:55:02;17.10;;;12.75;;
39600;SDS011;25297;44.758;11.310;2023-12-04T12:57:29;17.38;;;12.98;;
39600;SDS011;25297;44.758;11.310;2023-12-04T12:59:55;17.90;;;12.52;;
39600;SDS011;25297;44.758;11.310;2023-12-04T13:02:21;16.02;;;12.52;;
39600;SDS011;25297;44.758;11.310;2023-12-04T13:04:46;17.50;;;12.43;;
39600;SDS011;25297;44.758;11.310;2023-12-04T13:07:12;15.43;;;10.90;;
39600;SDS011;25297;44.758;11.310;2023-12-04T13:09:38;16.58;;;11.43;;
39600;SDS011;25297;44.758;11.310;2023-12-04T13:12:05;15.40;;;11.13;;
39600;SDS011;25297;44.758;11.310;2023-12-04T13:14:32;16.48;;;12.00;;
39600;SDS011;25297;44.758;11.310;2023-12-04T13:16:59;15.98;;;11.70;;
39600;SDS011;25297;44.758;11.310;2023-12-04T13:19:26;17.55;;;10.95;;
39600;SDS011;25297;44.758;11.310;2023-12-04T13:21:52;24.15;;;16.15;;
39600;SDS011;25297;44.758;11.310;2023-12-04T13:24:17;36.58;;;23.15;;
39600;SDS011;25297;44.758;11.310;2023-12-04T13:26:44;32.47;;;18.98;;
39600;SDS011;25297;44.758;11.310;2023-12-04T13:29:10;19.80;;;13.60;;
39600;SDS011;25297;44.758;11.310;2023-12-04T13:31:40;17.00;;;13.38;;
39600;SDS011;25297;44.758;11.310;2023-12-04T13:34:06;23.17;;;14.07;;
39600;SDS011;25297;44.758;11.310;2023-12-04T13:36:34;19.63;;;13.80;;
39600;SDS011;25297;44.758;11.310;2023-12-04T13:39:02;18.85;;;13.68;;
39600;SDS011;25297;44.758;11.310;2023-12-04T13:41:29;17.50;;;13.95;;
39600;SDS011;25297;44.758;11.310;2023-12-04T13:44:21;21.70;;;13.63;;
39600;SDS011;25297;44.758;11.310;2023-12-04T13:46:47;40.13;;;14.13;;
39600;SDS011;25297;44.758;11.310;2023-12-04T13:49:14;16.80;;;12.27;;
39600;SDS011;25297;44.758;11.310;2023-12-04T13:51:43;17.95;;;12.60;;
39600;SDS011;25297;44.758;11.310;2023-12-04T13:54:09;16.67;;;12.57;;
39600;SDS011;25297;44.758;11.310;2023-12-04T13:56:46;17.67;;;13.10;;
39600;SDS011;25297;44.758;11.310;2023-12-04T13:59:22;13.20;;;10.88;;
39600;SDS011;25297;44.758;11.310;2023-12-04T14:01:49;17.20;;;12.93;;
39600;SDS011;25297;44.758;11.310;2023-12-04T14:04:16;17.65;;;14.00;;
39600;SDS011;25297;44.758;11.310;2023-12-04T14:06:42;14.48;;;12.07;;
39600;SDS011;25297;44.758;11.310;2023-12-04T14:09:16;16.38;;;12.17;;